createdAt,value
2023-09-08T00:02:30.719Z,6.25
2023-09-08T00:05:32.923Z,5.25
2023-09-08T00:08:35.196Z,5.60
2023-09-08T00:11:37.419Z,5.70
2023-09-08T00:14:40.008Z,5.78
2023-09-08T00:17:42.036Z,5.93
2023-09-08T00:20:44.178Z,6.13
2023-09-08T00:23:46.204Z,5.53
2023-09-08T00:26:48.301Z,6.10
2023-09-08T00:29:50.316Z,5.38
2023-09-08T00:32:52.553Z,5.90
2023-09-08T00:35:58.167Z,5.60
2023-09-08T00:39:00.234Z,6.40
2023-09-08T00:42:03.856Z,6.40
2023-09-08T00:45:06.236Z,5.65
2023-09-08T00:48:08.748Z,5.32
2023-09-08T00:51:11.099Z,6.28
2023-09-08T00:54:13.298Z,6.13
2023-09-08T00:57:15.388Z,6.30
2023-09-08T01:00:18.269Z,5.88
2023-09-08T01:03:20.969Z,6.00
2023-09-08T01:06:23.531Z,6.05
2023-09-08T01:09:25.750Z,6.65
2023-09-08T01:12:28.054Z,5.53
2023-09-08T01:15:30.085Z,5.72
2023-09-08T01:18:32.251Z,6.68
2023-09-08T01:21:37.168Z,6.35
2023-09-08T01:24:57.963Z,6.00
2023-09-08T01:28:01.990Z,6.33
2023-09-08T01:31:04.163Z,6.03
2023-09-08T01:34:08.296Z,5.97
2023-09-08T01:37:10.421Z,6.78
2023-09-08T01:40:12.778Z,6.07
2023-09-08T01:43:14.780Z,6.57
2023-09-08T01:46:16.850Z,5.75
2023-09-08T01:49:18.980Z,6.30
2023-09-08T01:52:21.077Z,7.03
2023-09-08T01:55:23.220Z,7.05
2023-09-08T01:58:26.098Z,6.63
2023-09-08T02:01:28.269Z,6.88
2023-09-08T02:04:30.532Z,6.80
2023-09-08T02:07:33.104Z,6.22
2023-09-08T02:10:35.144Z,6.55
2023-09-08T02:13:37.612Z,6.53
2023-09-08T02:16:39.698Z,6.93
2023-09-08T02:19:41.730Z,6.47
2023-09-08T02:22:45.104Z,6.82
2023-09-08T02:25:47.328Z,7.20
2023-09-08T02:28:49.641Z,6.70
2023-09-08T02:31:53.178Z,6.57
2023-09-08T02:34:55.423Z,6.88
2023-09-08T02:37:57.526Z,6.95
2023-09-08T02:41:01.384Z,6.65
2023-09-08T02:44:03.705Z,7.03
2023-09-08T02:47:07.621Z,6.88
2023-09-08T02:50:11.519Z,6.82
2023-09-08T02:53:13.581Z,6.68
2023-09-08T02:56:15.601Z,6.57
2023-09-08T02:59:17.971Z,6.50
2023-09-08T03:02:20.367Z,6.43
2023-09-08T03:05:22.579Z,6.97
2023-09-08T03:08:24.699Z,6.38
2023-09-08T03:11:26.906Z,6.38
2023-09-08T03:14:28.940Z,6.47
2023-09-08T03:17:31.638Z,7.03
2023-09-08T03:20:33.713Z,6.60
2023-09-08T03:23:42.940Z,6.72
2023-09-08T03:26:45.153Z,7.00
2023-09-08T03:29:47.212Z,6.87
2023-09-08T03:32:49.312Z,7.93
2023-09-08T03:35:51.491Z,7.70
2023-09-08T03:38:53.606Z,7.45
2023-09-08T03:41:55.770Z,7.05
2023-09-08T03:44:58.772Z,6.90
2023-09-08T03:48:00.950Z,7.80
2023-09-08T03:51:03.104Z,6.88
2023-09-08T03:54:05.311Z,7.85
2023-09-08T03:57:07.408Z,6.88
2023-09-08T04:00:11.623Z,6.73
2023-09-08T04:03:16.390Z,8.23
2023-09-08T04:06:18.524Z,7.28
2023-09-08T04:09:20.673Z,7.10
2023-09-08T04:12:22.762Z,7.43
2023-09-08T04:15:24.890Z,7.20
2023-09-08T04:18:27.015Z,6.90
2023-09-08T04:21:29.370Z,7.05
2023-09-08T04:24:35.967Z,6.43
2023-09-08T04:27:38.302Z,7.25
2023-09-08T04:30:40.410Z,6.13
2023-09-08T04:33:42.576Z,7.13
2023-09-08T04:36:44.905Z,7.45
2023-09-08T04:39:46.999Z,7.03
2023-09-08T04:42:49.280Z,6.85
2023-09-08T04:45:51.909Z,7.60
2023-09-08T04:48:54.036Z,7.45
2023-09-08T04:51:58.311Z,7.20
2023-09-08T04:55:01.252Z,7.10
2023-09-08T04:58:03.556Z,7.28
2023-09-08T05:01:06.633Z,6.80
2023-09-08T05:04:09.094Z,6.93
2023-09-08T05:07:11.427Z,7.53
2023-09-08T05:10:13.923Z,7.80
2023-09-08T05:13:30.176Z,6.88
2023-09-08T05:16:47.466Z,6.80
2023-09-08T05:19:53.622Z,6.90
2023-09-08T05:22:56.540Z,7.30
2023-09-08T05:25:58.709Z,6.70
2023-09-08T05:29:00.934Z,6.97
2023-09-08T05:32:03.517Z,7.03
2023-09-08T05:35:06.457Z,6.43
2023-09-08T05:38:09.217Z,7.10
2023-09-08T05:41:11.341Z,6.93
2023-09-08T05:44:13.893Z,6.72
2023-09-08T05:47:16.485Z,6.67
2023-09-08T05:50:19.092Z,6.75
2023-09-08T05:53:21.458Z,7.00
2023-09-08T05:56:25.910Z,6.57
2023-09-08T05:59:28.112Z,7.07
2023-09-08T06:02:30.403Z,6.17
2023-09-08T06:05:32.564Z,6.22
2023-09-08T06:08:35.153Z,6.65
2023-09-08T06:11:38.154Z,7.05
2023-09-08T06:14:43.578Z,6.63
2023-09-08T06:17:48.034Z,6.73
2023-09-08T06:20:50.295Z,5.97
2023-09-08T06:23:53.337Z,6.78
2023-09-08T06:26:55.709Z,6.47
2023-09-08T06:29:59.909Z,6.20
2023-09-08T06:33:03.111Z,6.20
2023-09-08T06:36:05.558Z,6.07
2023-09-08T06:39:07.751Z,5.90
2023-09-08T06:42:10.147Z,6.93
2023-09-08T06:45:14.705Z,6.30
2023-09-08T06:48:17.685Z,6.20
2023-09-08T06:51:20.861Z,6.18
2023-09-08T06:54:24.852Z,6.45
2023-09-08T06:57:27.280Z,6.05
2023-09-08T07:00:30.250Z,5.78
2023-09-08T07:03:38.745Z,5.87
2023-09-08T07:06:44.907Z,5.85
2023-09-08T07:09:48.402Z,5.97
2023-09-08T07:12:50.720Z,6.03
2023-09-08T07:15:53.205Z,5.78
2023-09-08T07:18:56.519Z,6.60
2023-09-08T07:21:58.719Z,5.78
2023-09-08T07:25:01.025Z,5.55
2023-09-08T07:28:03.394Z,5.70
2023-09-08T07:31:06.169Z,5.90
2023-09-08T07:34:12.185Z,6.07
2023-09-08T07:37:14.776Z,6.63
2023-09-08T07:40:16.917Z,6.22
2023-09-08T07:43:19.123Z,5.57
2023-09-08T07:46:21.258Z,5.35
2023-09-08T07:49:23.468Z,5.00
2023-09-08T07:52:25.539Z,5.60
2023-09-08T07:55:28.655Z,5.70
2023-09-08T07:58:30.841Z,5.72
2023-09-08T08:01:33.472Z,5.85
2023-09-08T08:04:35.615Z,5.50
2023-09-08T08:07:38.993Z,5.57
2023-09-08T08:10:42.156Z,6.40
2023-09-08T08:13:44.577Z,6.50
2023-09-08T08:16:46.709Z,5.72
2023-09-08T08:19:48.777Z,4.97
2023-09-08T08:22:50.827Z,5.45
2023-09-08T08:25:53.150Z,4.90
2023-09-08T08:28:55.223Z,5.25
2023-09-08T08:31:57.439Z,5.32
2023-09-08T08:34:59.682Z,5.43
2023-09-08T08:38:01.775Z,5.07
2023-09-08T08:41:05.219Z,6.25
2023-09-08T08:44:08.038Z,4.70
2023-09-08T08:47:10.887Z,5.72
2023-09-08T08:50:13.616Z,4.30
2023-09-08T08:53:16.842Z,5.55
2023-09-08T08:56:19.387Z,6.03
2023-09-08T08:59:21.435Z,4.85
2023-09-08T09:02:23.972Z,4.95
2023-09-08T09:05:26.066Z,4.70
2023-09-08T09:08:29.183Z,5.30
2023-09-08T09:11:32.627Z,5.20
2023-09-08T09:14:36.153Z,4.88
2023-09-08T09:17:38.422Z,5.45
2023-09-08T09:20:42.436Z,5.50
2023-09-08T09:23:44.433Z,5.03
2023-09-08T09:26:46.493Z,5.03
2023-09-08T09:29:49.742Z,4.13
2023-09-08T09:33:05.097Z,4.85
2023-09-08T09:36:08.399Z,4.33
2023-09-08T09:39:10.520Z,4.85
2023-09-08T09:42:15.007Z,4.93
2023-09-08T09:45:17.828Z,4.80
2023-09-08T09:48:20.730Z,4.85
2023-09-08T09:51:22.915Z,4.60
2023-09-08T09:54:25.300Z,4.97
2023-09-08T09:57:27.699Z,5.53
2023-09-08T10:00:29.988Z,4.70
2023-09-08T10:03:33.723Z,4.43
2023-09-08T10:06:36.660Z,5.67
2023-09-08T10:09:38.828Z,5.38
2023-09-08T10:12:43.883Z,4.38
2023-09-08T10:15:46.496Z,4.65
2023-09-08T10:18:50.844Z,4.97
2023-09-08T10:21:55.710Z,4.97
2023-09-08T10:25:00.465Z,5.38
2023-09-08T10:28:04.936Z,5.15
2023-09-08T10:31:08.220Z,5.30
2023-09-08T10:34:10.850Z,5.78
2023-09-08T10:37:22.869Z,5.37
2023-09-08T10:40:26.021Z,5.32
2023-09-08T10:43:28.634Z,4.80
2023-09-08T10:46:31.912Z,5.55
2023-09-08T10:49:37.468Z,5.65
2023-09-08T10:52:39.539Z,5.37
2023-09-08T10:55:44.322Z,5.82
2023-09-08T10:58:55.371Z,4.70
2023-09-08T11:01:57.465Z,5.47
2023-09-08T11:04:59.576Z,5.85
2023-09-08T11:08:01.847Z,5.20
2023-09-08T11:11:04.082Z,5.55
2023-09-08T11:14:06.150Z,5.28
2023-09-08T11:17:08.205Z,5.30
2023-09-08T11:20:11.998Z,5.57
2023-09-08T11:23:14.608Z,4.60
2023-09-08T11:26:17.855Z,4.13
2023-09-08T11:29:20.019Z,5.60
2023-09-08T11:32:22.125Z,5.30
2023-09-08T11:35:28.270Z,4.82
2023-09-08T11:38:31.153Z,4.40
2023-09-08T11:41:33.284Z,4.80
2023-09-08T11:44:36.381Z,4.18
2023-09-08T11:47:38.677Z,4.80
2023-09-08T11:50:43.595Z,5.03
2023-09-08T11:53:47.370Z,5.00
2023-09-08T11:56:49.476Z,4.13
2023-09-08T11:59:52.896Z,3.92
2023-09-08T12:02:55.554Z,4.20
2023-09-08T12:05:57.713Z,3.65
2023-09-08T12:09:03.841Z,4.37
2023-09-08T12:12:11.750Z,3.95
2023-09-08T12:15:30.401Z,4.93
2023-09-08T12:18:41.673Z,4.45
2023-09-08T12:22:04.346Z,4.93
2023-09-08T12:25:09.305Z,4.47
2023-09-08T12:28:11.903Z,4.35
2023-09-08T12:31:14.954Z,4.32
2023-09-08T12:34:17.119Z,3.78
2023-09-08T12:37:25.884Z,4.40
2023-09-08T12:40:28.514Z,4.23
2023-09-08T12:43:30.967Z,4.22
2023-09-08T12:46:35.196Z,3.83
2023-09-08T12:49:37.386Z,4.00
2023-09-08T12:52:39.419Z,3.90
2023-09-08T12:55:41.909Z,3.80
2023-09-08T12:58:43.987Z,4.32
2023-09-08T13:01:46.111Z,4.80
2023-09-08T13:04:49.901Z,4.20
2023-09-08T13:07:52.081Z,3.90
2023-09-08T13:10:54.170Z,4.40
2023-09-08T13:13:56.236Z,3.83
2023-09-08T13:16:58.405Z,4.05
2023-09-08T13:20:00.628Z,4.22
2023-09-08T13:23:02.745Z,4.32
2023-09-08T13:26:04.917Z,4.30
2023-09-08T13:29:07.031Z,4.00
2023-09-08T13:32:09.212Z,4.40
2023-09-08T13:35:11.374Z,5.22
2023-09-08T13:38:13.440Z,3.85
2023-09-08T13:41:15.437Z,4.20
2023-09-08T13:44:18.983Z,4.20
2023-09-08T13:47:21.276Z,4.20
2023-09-08T13:50:26.924Z,4.32
2023-09-08T13:53:42.625Z,4.25
2023-09-08T13:57:00.953Z,3.97
2023-09-08T14:00:04.979Z,3.75
2023-09-08T14:03:14.335Z,3.78
2023-09-08T14:06:21.496Z,4.50
2023-09-08T14:12:35.615Z,3.87
2023-09-08T14:15:38.458Z,4.15
2023-09-08T14:18:40.848Z,3.95
2023-09-08T14:21:42.845Z,4.20
2023-09-08T14:24:44.868Z,4.20
2023-09-08T14:27:46.864Z,3.90
2023-09-08T14:30:50.398Z,3.95
2023-09-08T14:33:52.473Z,4.50
2023-09-08T14:36:54.586Z,4.28
2023-09-08T14:39:56.724Z,4.38
2023-09-08T14:42:58.842Z,3.93
2023-09-08T14:46:04.173Z,4.10
2023-09-08T14:49:06.322Z,4.07
2023-09-08T14:52:08.319Z,4.07
2023-09-08T14:55:10.485Z,3.60
2023-09-08T14:58:15.217Z,4.27
2023-09-08T15:01:17.412Z,4.13
2023-09-08T15:04:19.537Z,4.18
2023-09-08T15:07:21.636Z,5.18
2023-09-08T15:10:23.775Z,3.80
2023-09-08T15:13:26.057Z,4.10
2023-09-08T15:16:28.155Z,4.03
2023-09-08T15:19:30.255Z,4.10
2023-09-08T15:22:32.369Z,4.07
2023-09-08T15:25:34.483Z,4.15
2023-09-08T15:28:36.600Z,3.87
2023-09-08T15:31:38.827Z,3.90
2023-09-08T15:34:41.144Z,4.10
2023-09-08T15:37:43.157Z,4.47
2023-09-08T15:41:04.012Z,4.03
2023-09-08T15:44:06.117Z,3.80
2023-09-08T15:47:08.102Z,4.22
2023-09-08T15:50:11.591Z,4.30
2023-09-08T15:53:13.645Z,4.10
2023-09-08T15:56:15.785Z,4.88
2023-09-08T15:59:18.227Z,5.13
2023-09-08T16:02:20.292Z,4.70
2023-09-08T16:05:22.316Z,5.40
2023-09-08T16:08:25.405Z,5.03
2023-09-08T16:11:27.669Z,5.40
2023-09-08T16:14:30.053Z,4.60
2023-09-08T16:17:32.387Z,4.22
2023-09-08T16:20:34.573Z,4.50
2023-09-08T16:23:36.868Z,3.90
2023-09-08T16:26:39.210Z,5.35
2023-09-08T16:29:41.307Z,4.00
2023-09-08T16:32:43.687Z,4.25
2023-09-08T16:35:45.728Z,4.05
2023-09-08T16:38:47.758Z,4.07
2023-09-08T16:41:49.809Z,4.47
2023-09-08T16:44:51.827Z,4.17
2023-09-08T16:47:53.874Z,4.43
2023-09-08T16:50:55.966Z,4.28
2023-09-08T16:54:00.548Z,4.10
2023-09-08T16:57:03.127Z,3.95
2023-09-08T17:00:06.750Z,4.70
2023-09-08T17:03:08.905Z,4.20
2023-09-08T17:06:12.070Z,4.30
2023-09-08T17:09:15.430Z,4.82
2023-09-08T17:12:17.486Z,4.30
2023-09-08T17:15:19.603Z,4.90
2023-09-08T17:18:23.915Z,4.22
2023-09-08T17:21:26.145Z,4.70
2023-09-08T17:24:28.671Z,4.45
2023-09-08T17:27:30.781Z,4.38
2023-09-08T17:30:32.934Z,4.23
2023-09-08T17:33:35.686Z,4.35
2023-09-08T17:36:38.203Z,4.30
2023-09-08T17:39:40.248Z,4.78
2023-09-08T17:42:42.268Z,4.70
2023-09-08T17:45:47.200Z,4.80
2023-09-08T17:48:49.386Z,4.70
2023-09-08T17:51:51.556Z,4.72
2023-09-08T17:54:53.691Z,4.75
2023-09-08T17:57:56.299Z,4.75
2023-09-08T18:00:58.522Z,4.57
2023-09-08T18:04:00.769Z,5.10
2023-09-08T18:07:04.687Z,5.00
2023-09-08T18:10:07.608Z,4.85
2023-09-08T18:13:09.786Z,4.78
2023-09-08T18:16:12.141Z,4.90
2023-09-08T18:19:14.232Z,4.40
2023-09-08T18:22:16.358Z,5.00
2023-09-08T18:25:22.128Z,4.95
2023-09-08T18:28:24.217Z,5.07
2023-09-08T18:31:27.164Z,5.10
2023-09-08T18:34:29.451Z,5.03
2023-09-08T18:37:31.950Z,5.57
2023-09-08T18:40:33.974Z,5.45
2023-09-08T18:43:37.260Z,4.90
2023-09-08T18:46:39.582Z,4.37
2023-09-08T18:49:41.615Z,4.93
2023-09-08T18:52:43.739Z,5.18
2023-09-08T18:55:45.867Z,5.43
2023-09-08T18:58:48.262Z,6.00
2023-09-08T19:01:50.295Z,5.87
2023-09-08T19:04:52.902Z,5.55
2023-09-08T19:07:55.077Z,5.70
2023-09-08T19:10:57.166Z,5.88
2023-09-08T19:13:59.170Z,5.30
2023-09-08T19:17:01.788Z,6.63
2023-09-08T19:20:04.176Z,6.32
2023-09-08T19:23:06.304Z,6.28
2023-09-08T19:26:08.642Z,5.68
2023-09-08T19:29:10.762Z,5.78
2023-09-08T19:32:12.760Z,4.97
2023-09-08T19:35:14.926Z,5.45
2023-09-08T19:38:18.949Z,5.68
2023-09-08T19:41:24.964Z,5.40
2023-09-08T19:44:27.018Z,5.18
2023-09-08T19:47:29.263Z,5.80
2023-09-08T19:50:31.391Z,5.55
2023-09-08T19:53:33.551Z,5.32
2023-09-08T19:56:35.621Z,5.28
2023-09-08T19:59:40.272Z,6.05
2023-09-08T20:02:43.446Z,5.53
2023-09-08T20:05:46.135Z,5.75
2023-09-08T20:08:48.214Z,5.30
2023-09-08T20:11:50.456Z,5.30
2023-09-08T20:14:52.666Z,5.13
2023-09-08T20:17:54.773Z,5.07
2023-09-08T20:20:57.357Z,5.90
2023-09-08T20:23:59.588Z,5.55
2023-09-08T20:27:01.695Z,5.32
2023-09-08T20:30:04.344Z,5.03
2023-09-08T20:33:07.033Z,5.00
2023-09-08T20:36:09.932Z,5.32
2023-09-08T20:39:12.140Z,5.30
2023-09-08T20:42:14.441Z,5.43
2023-09-08T20:45:16.566Z,5.63
2023-09-08T20:48:18.660Z,5.37
2023-09-08T20:51:21.223Z,5.40
2023-09-08T20:54:23.377Z,5.75
2023-09-08T20:57:26.253Z,5.43
2023-09-08T21:00:29.612Z,5.00
2023-09-08T21:03:31.754Z,5.37
2023-09-08T21:06:35.673Z,5.20
2023-09-08T21:09:38.214Z,6.07
2023-09-08T21:12:40.322Z,6.10
2023-09-08T21:15:42.759Z,5.90
2023-09-08T21:18:44.787Z,6.00
2023-09-08T21:21:47.360Z,6.25
2023-09-08T21:24:49.417Z,5.97
2023-09-08T21:27:51.461Z,5.97
2023-09-08T21:31:03.584Z,5.80
2023-09-08T21:34:05.765Z,5.87
2023-09-08T21:37:07.809Z,5.78
2023-09-08T21:40:10.268Z,5.78
2023-09-08T21:43:12.333Z,5.65
2023-09-08T21:46:14.388Z,5.88
2023-09-08T21:49:17.115Z,5.30
2023-09-08T21:52:32.010Z,6.22
2023-09-08T21:55:39.397Z,5.88
2023-09-08T21:58:41.468Z,5.75
2023-09-08T22:01:44.410Z,5.80
2023-09-08T22:04:46.830Z,5.90
2023-09-08T22:07:49.001Z,6.30
2023-09-08T22:10:51.108Z,6.20
2023-09-08T22:13:53.377Z,6.70
2023-09-08T22:16:55.524Z,6.07
2023-09-08T22:19:57.929Z,6.37
2023-09-08T22:23:00.009Z,6.10
2023-09-08T22:26:03.776Z,5.85
2023-09-08T22:29:05.818Z,6.25
2023-09-08T22:32:07.863Z,6.15
2023-09-08T22:35:10.515Z,5.67
2023-09-08T22:38:12.623Z,5.90
2023-09-08T22:41:14.783Z,5.88
2023-09-08T22:44:16.865Z,6.53
2023-09-08T22:47:18.917Z,6.07
2023-09-08T22:50:21.305Z,6.10
2023-09-08T22:53:23.519Z,6.90
2023-09-08T22:56:25.693Z,6.50
2023-09-08T22:59:27.760Z,6.50
2023-09-08T23:02:30.613Z,6.28
2023-09-08T23:05:32.749Z,6.13
2023-09-08T23:08:34.874Z,5.97
2023-09-08T23:11:36.962Z,5.53
2023-09-08T23:14:52.441Z,6.32
2023-09-08T23:17:57.791Z,5.93
2023-09-08T23:20:59.944Z,5.83
2023-09-08T23:24:02.020Z,6.32
2023-09-08T23:27:04.264Z,5.90
2023-09-08T23:30:07.151Z,6.00
2023-09-08T23:33:09.244Z,6.22
2023-09-08T23:36:11.303Z,6.03
2023-09-08T23:39:14.504Z,7.82
2023-09-08T23:42:16.615Z,6.15
2023-09-08T23:45:18.676Z,6.82
2023-09-08T23:48:20.665Z,6.68
2023-09-08T23:51:22.843Z,6.67
2023-09-08T23:54:24.858Z,7.05
2023-09-08T23:57:26.999Z,6.22
